Time;durP1;ratioP1;P1;durP2;ratioP2;P2;SDS_P1;SDS_P2;PMS_P1;PMS_P2;Temp;Humidity;BMP_temperature;BMP_pressure;BME280_temperature;BME280_humidity;BME280_pressure;Samples;Min_cycle;Max_cycle;Signal;HPM_P1;HPM_P2
2022/04/21 00:00:11;;;;;;;1.50;1.40;;;;;;;;;;5063762;28;20205;-63
2022/04/21 00:02:38;;;;;;;1.67;1.57;;;;;;;;;;5065736;28;20198;-62
2022/04/21 00:05:05;;;;;;;1.67;1.40;;;;;;;;;;5065599;28;20194;-61
2022/04/21 00:07:32;;;;;;;2.33;1.80;;;;;;;;;;5064642;28;20217;-62
2022/04/21 00:10:00;;;;;;;1.83;1.40;;;;;;;;;;5065548;28;20226;-62
2022/04/21 00:12:28;;;;;;;1.63;1.50;;;;;;;;;;5062679;28;20222;-63
2022/04/21 00:14:55;;;;;;;1.60;1.47;;;;;;;;;;5063841;28;20205;-63
2022/04/21 00:17:23;;;;;;;1.80;1.57;;;;;;;;;;5062541;28;20684;-62
2022/04/21 00:19:50;;;;;;;4.27;1.60;;;;;;;;;;5047460;28;20190;-63
2022/04/21 00:25:03;;;;;;;2.27;1.80;;;;;;;;;;5063137;28;20680;-63
2022/04/21 00:27:30;;;;;;;1.70;1.60;;;;;;;;;;5069723;28;20217;-63
2022/04/21 00:29:58;;;;;;;2.00;1.43;;;;;;;;;;5067862;28;20221;-63
2022/04/21 00:32:25;;;;;;;2.57;1.40;;;;;;;;;;5067447;28;20189;-63
2022/04/21 00:34:52;;;;;;;1.63;1.53;;;;;;;;;;5065728;28;20205;-63
2022/04/21 00:37:19;;;;;;;2.27;1.80;;;;;;;;;;5060120;28;20209;-62
2022/04/21 00:39:50;;;;;;;1.97;1.63;;;;;;;;;;5065957;28;20252;-62
2022/04/21 00:42:17;;;;;;;3.27;1.80;;;;;;;;;;5046576;28;20213;-63
2022/04/21 00:44:44;;;;;;;1.87;1.53;;;;;;;;;;5067038;28;20201;-63
2022/04/21 00:47:11;;;;;;;1.67;1.40;;;;;;;;;;5060967;28;21087;-62
2022/04/21 00:49:39;;;;;;;2.33;1.70;;;;;;;;;;5067642;28;20263;-62
2022/04/21 00:52:07;;;;;;;1.87;1.50;;;;;;;;;;5072070;28;20190;-62
2022/04/21 00:54:35;;;;;;;1.60;1.50;;;;;;;;;;5065269;28;20251;-62
2022/04/21 00:57:02;;;;;;;1.53;1.43;;;;;;;;;;5064928;28;20213;-63
2022/04/21 00:59:29;;;;;;;1.73;1.60;;;;;;;;;;5062624;28;20209;-62
2022/04/21 01:04:45;;;;;;;2.00;1.77;;;;;;;;;;5068175;28;20193;-62
2022/04/21 01:07:13;;;;;;;1.50;1.40;;;;;;;;;;5070953;28;20744;-62
2022/04/21 01:09:40;;;;;;;4.97;1.63;;;;;;;;;;5050576;28;20233;-62
2022/04/21 01:12:11;;;;;;;2.10;1.67;;;;;;;;;;5064714;28;20218;-63
2022/04/21 01:14:39;;;;;;;1.43;1.33;;;;;;;;;;5061181;28;20642;-61
2022/04/21 01:17:06;;;;;;;1.60;1.50;;;;;;;;;;5065347;28;20259;-63
2022/04/21 01:19:34;;;;;;;1.67;1.47;;;;;;;;;;5067994;28;20263;-62
2022/04/21 01:22:01;;;;;;;1.90;1.70;;;;;;;;;;5068267;28;20190;-64
2022/04/21 01:24:29;;;;;;;2.27;1.87;;;;;;;;;;5065333;28;20637;-62
2022/04/21 01:26:57;;;;;;;1.70;1.50;;;;;;;;;;5067851;28;20639;-63
2022/04/21 01:29:24;;;;;;;2.10;1.80;;;;;;;;;;5042824;28;20604;-64
2022/04/21 01:31:51;;;;;;;1.73;1.60;;;;;;;;;;5067723;28;20205;-63
2022/04/21 01:34:19;;;;;;;3.23;1.70;;;;;;;;;;5068058;28;20259;-62
2022/04/21 01:42:18;;;;;;;1.70;1.50;;;;;;;;;;5068340;28;20198;-63
2022/04/21 01:44:45;;;;;;;2.03;1.53;;;;;;;;;;5067617;28;20221;-62
2022/04/21 01:47:12;;;;;;;1.40;1.30;;;;;;;;;;5056576;28;20270;-64
2022/04/21 01:49:39;;;;;;;1.70;1.43;;;;;;;;;;5064450;28;20209;-62
2022/04/21 01:52:06;;;;;;;1.73;1.53;;;;;;;;;;5067951;28;20443;-62
2022/04/21 01:54:33;;;;;;;2.40;1.87;;;;;;;;;;5070193;28;20205;-63
2022/04/21 01:57:00;;;;;;;1.60;1.50;;;;;;;;;;5069114;28;20193;-62
2022/04/21 01:59:27;;;;;;;1.87;1.73;;;;;;;;;;5037322;28;20218;-62
2022/04/21 02:01:55;;;;;;;5.23;1.60;;;;;;;;;;5066819;28;20259;-62
2022/04/21 02:04:22;;;;;;;2.77;1.80;;;;;;;;;;5066897;28;20198;-63
2022/04/21 02:06:49;;;;;;;5.60;1.97;;;;;;;;;;5068183;28;20643;-62
2022/04/21 02:09:17;;;;;;;1.63;1.40;;;;;;;;;;5063273;28;20489;-63
2022/04/21 02:11:44;;;;;;;4.57;2.03;;;;;;;;;;5074200;28;20646;-63
2022/04/21 02:14:11;;;;;;;2.00;1.50;;;;;;;;;;5067548;28;20194;-62
2022/04/21 02:16:38;;;;;;;2.33;1.93;;;;;;;;;;5073099;28;20251;-63
2022/04/21 02:19:05;;;;;;;2.77;1.47;;;;;;;;;;5064299;28;20201;-62
2022/04/21 02:21:32;;;;;;;2.33;1.80;;;;;;;;;;5068269;28;20815;-62
2022/04/21 02:23:59;;;;;;;2.53;1.60;;;;;;;;;;5046397;28;20205;-63
2022/04/21 02:26:26;;;;;;;2.17;1.60;;;;;;;;;;5073074;28;20289;-63
2022/04/21 02:28:53;;;;;;;2.60;2.03;;;;;;;;;;5065953;28;20236;-63
2022/04/21 02:31:21;;;;;;;2.07;1.73;;;;;;;;;;5063969;28;20716;-64
2022/04/21 02:33:48;;;;;;;1.83;1.60;;;;;;;;;;5066838;28;20278;-62
2022/04/21 02:36:15;;;;;;;2.47;1.83;;;;;;;;;;5064098;28;20210;-63
2022/04/21 02:38:42;;;;;;;2.03;1.90;;;;;;;;;;5046945;28;20197;-62
2022/04/21 02:41:09;;;;;;;2.37;2.10;;;;;;;;;;5064833;28;20500;-63
2022/04/21 02:43:37;;;;;;;1.83;1.70;;;;;;;;;;5065823;28;20634;-63
2022/04/21 02:46:04;;;;;;;3.30;1.87;;;;;;;;;;5068228;28;20290;-62
2022/04/21 02:48:31;;;;;;;2.40;1.90;;;;;;;;;;5045428;28;20298;-64
2022/04/21 02:50:58;;;;;;;2.13;1.77;;;;;;;;;;5068696;28;20210;-64
2022/04/21 02:59:00;;;;;;;2.33;2.13;;;;;;;;;;5066595;28;20197;-62
2022/04/21 03:01:27;;;;;;;3.03;1.90;;;;;;;;;;5061242;28;20244;-63
2022/04/21 03:03:55;;;;;;;2.07;1.80;;;;;;;;;;5067236;28;20201;-62
2022/04/21 03:06:22;;;;;;;2.47;2.00;;;;;;;;;;5066354;28;20198;-62
2022/04/21 03:08:49;;;;;;;2.17;2.00;;;;;;;;;;5066552;28;20202;-63
2022/04/21 03:11:17;;;;;;;2.03;1.83;;;;;;;;;;5066698;28;20196;-62
2022/04/21 03:13:44;;;;;;;2.30;1.80;;;;;;;;;;5071495;28;20231;-64
2022/04/21 03:16:11;;;;;;;1.90;1.80;;;;;;;;;;5068557;28;20190;-63
2022/04/21 03:18:38;;;;;;;2.80;2.20;;;;;;;;;;5068080;28;20216;-62
2022/04/21 03:26:37;;;;;;;2.13;1.93;;;;;;;;;;5067580;28;20589;-63
2022/04/21 03:29:04;;;;;;;2.30;2.10;;;;;;;;;;5055439;28;20214;-62
2022/04/21 03:31:31;;;;;;;2.37;2.17;;;;;;;;;;5067542;28;20565;-62
2022/04/21 03:33:58;;;;;;;2.77;1.97;;;;;;;;;;5067369;28;20204;-63
2022/04/21 03:36:25;;;;;;;4.57;3.23;;;;;;;;;;5063802;28;20267;-63
2022/04/21 03:38:53;;;;;;;2.47;1.97;;;;;;;;;;5065918;28;20235;-63
2022/04/21 03:41:20;;;;;;;3.10;1.80;;;;;;;;;;5064007;28;20197;-62
2022/04/21 03:43:47;;;;;;;3.00;2.23;;;;;;;;;;5065097;28;20213;-63
2022/04/21 03:46:14;;;;;;;2.33;2.10;;;;;;;;;;5064917;28;20611;-65
2022/04/21 03:48:41;;;;;;;2.57;2.17;;;;;;;;;;5063791;28;20233;-62
2022/04/21 03:51:10;;;;;;;2.90;2.10;;;;;;;;;;5063476;28;20788;-62
2022/04/21 03:53:37;;;;;;;2.87;2.57;;;;;;;;;;5070649;28;20251;-66
2022/04/21 03:56:04;;;;;;;4.00;1.90;;;;;;;;;;5054462;28;20197;-63
2022/04/21 03:58:31;;;;;;;2.20;2.00;;;;;;;;;;5065623;28;20576;-62
2022/04/21 04:00:58;;;;;;;3.83;2.00;;;;;;;;;;5062796;28;20213;-62
2022/04/21 04:03:26;;;;;;;3.00;2.20;;;;;;;;;;5068201;28;20439;-62
2022/04/21 04:05:53;;;;;;;2.73;2.27;;;;;;;;;;5065135;28;20236;-65
2022/04/21 04:11:06;;;;;;;2.37;2.17;;;;;;;;;;5059217;28;20282;-62
2022/04/21 04:13:33;;;;;;;2.87;1.90;;;;;;;;;;5043247;28;20647;-63
2022/04/21 04:16:26;;;;;;;3.30;2.40;;;;;;;;;;5076152;28;20194;-61
2022/04/21 04:18:55;;;;;;;1.97;1.77;;;;;;;;;;5071762;28;20204;-62
2022/04/21 04:21:26;;;;;;;2.83;2.30;;;;;;;;;;5063749;28;20926;-64
2022/04/21 04:23:57;;;;;;;2.37;2.13;;;;;;;;;;5059486;28;20213;-63
2022/04/21 04:26:27;;;;;;;2.60;2.30;;;;;;;;;;5073144;28;20308;-61
2022/04/21 04:29:03;;;;;;;3.90;2.03;;;;;;;;;;5076311;28;20206;-61
2022/04/21 04:31:45;;;;;;;3.47;2.50;;;;;;;;;;5070977;28;20201;-64
2022/04/21 04:34:17;;;;;;;2.13;1.93;;;;;;;;;;5071102;28;20193;-64
2022/04/21 04:36:47;;;;;;;4.20;2.23;;;;;;;;;;5067933;28;20202;-61
2022/04/21 04:39:17;;;;;;;4.03;2.10;;;;;;;;;;5052131;28;20202;-61
2022/04/21 04:44:31;;;;;;;2.30;2.10;;;;;;;;;;5068720;28;20649;-63
2022/04/21 04:47:00;;;;;;;2.70;2.27;;;;;;;;;;5068612;28;20251;-63
2022/04/21 04:49:30;;;;;;;2.93;2.00;;;;;;;;;;5043710;28;20751;-64
2022/04/21 04:51:58;;;;;;;3.00;2.10;;;;;;;;;;5052126;28;20217;-62
2022/04/21 04:54:25;;;;;;;2.30;2.10;;;;;;;;;;5068370;28;20255;-61
2022/04/21 04:56:52;;;;;;;2.63;2.03;;;;;;;;;;5068544;28;20205;-63
2022/04/21 04:59:19;;;;;;;2.53;2.33;;;;;;;;;;5071823;28;20274;-61
2022/04/21 05:01:46;;;;;;;3.87;2.30;;;;;;;;;;5068818;28;20182;-61
2022/04/21 05:04:15;;;;;;;3.43;2.37;;;;;;;;;;5068744;28;20198;-61
2022/04/21 05:06:46;;;;;;;2.50;2.30;;;;;;;;;;5069427;28;20202;-61
2022/04/21 05:09:16;;;;;;;2.60;2.13;;;;;;;;;;5070426;28;20244;-63
2022/04/21 05:11:46;;;;;;;3.37;2.50;;;;;;;;;;5063197;28;20616;-62
2022/04/21 05:14:14;;;;;;;2.60;2.40;;;;;;;;;;5051804;28;20202;-62
2022/04/21 05:16:41;;;;;;;2.57;2.30;;;;;;;;;;5068295;28;20265;-62
2022/04/21 05:19:09;;;;;;;4.00;2.60;;;;;;;;;;5067229;28;20194;-66
2022/04/21 05:21:37;;;;;;;4.10;2.73;;;;;;;;;;5067448;28;20194;-62
2022/04/21 05:24:05;;;;;;;2.47;2.27;;;;;;;;;;5076377;28;20521;-62
2022/04/21 05:26:32;;;;;;;4.50;2.70;;;;;;;;;;5051594;28;20205;-61
2022/04/21 05:29:01;;;;;;;3.13;2.83;;;;;;;;;;5072574;28;20260;-62
2022/04/21 05:31:30;;;;;;;12.77;4.97;;;;;;;;;;5065759;28;20998;-63
2022/04/21 05:33:57;;;;;;;15.00;5.97;;;;;;;;;;5069015;28;20193;-63
2022/04/21 05:36:25;;;;;;;28.50;10.00;;;;;;;;;;5065176;28;20213;-62
2022/04/21 05:38:52;;;;;;;31.43;9.60;;;;;;;;;;5067645;28;20209;-62
2022/04/21 05:41:20;;;;;;;29.87;9.20;;;;;;;;;;5066289;28;20259;-61
2022/04/21 05:43:51;;;;;;;29.17;8.40;;;;;;;;;;5068494;28;20209;-62
2022/04/21 05:46:24;;;;;;;16.30;7.17;;;;;;;;;;5067734;28;20193;-63
2022/04/21 05:48:54;;;;;;;17.27;7.00;;;;;;;;;;5075357;28;20273;-61
2022/04/21 05:51:24;;;;;;;15.83;6.80;;;;;;;;;;5064749;28;20192;-62
2022/04/21 05:53:55;;;;;;;14.03;5.70;;;;;;;;;;5066582;28;20197;-62
2022/04/21 05:56:25;;;;;;;10.30;5.53;;;;;;;;;;5067322;28;20193;-62
2022/04/21 05:58:54;;;;;;;15.80;5.57;;;;;;;;;;5066168;28;20518;-62
2022/04/21 06:01:24;;;;;;;10.73;4.87;;;;;;;;;;5062761;28;20538;-63
2022/04/21 06:03:54;;;;;;;14.17;4.63;;;;;;;;;;5067831;28;20224;-62
2022/04/21 06:06:22;;;;;;;7.00;3.77;;;;;;;;;;5067542;28;20194;-63
2022/04/21 06:08:49;;;;;;;7.57;3.73;;;;;;;;;;5068255;28;20221;-62
2022/04/21 06:11:17;;;;;;;6.73;3.53;;;;;;;;;;5063890;28;20222;-61
2022/04/21 06:13:44;;;;;;;6.27;3.70;;;;;;;;;;5073793;28;20201;-63
2022/04/21 06:16:11;;;;;;;6.57;3.27;;;;;;;;;;5075876;28;20244;-62
2022/04/21 06:18:38;;;;;;;5.90;3.40;;;;;;;;;;5067286;28;20202;-63
2022/04/21 06:21:06;;;;;;;5.17;3.20;;;;;;;;;;5066643;28;20208;-62
2022/04/21 06:23:34;;;;;;;4.67;2.70;;;;;;;;;;5063983;28;20205;-63
2022/04/21 06:26:03;;;;;;;4.77;3.23;;;;;;;;;;5032955;28;20728;-63
2022/04/21 06:28:30;;;;;;;4.43;2.77;;;;;;;;;;5066597;28;20213;-62
2022/04/21 06:30:57;;;;;;;3.43;3.00;;;;;;;;;;5066905;28;20255;-60
2022/04/21 06:33:24;;;;;;;6.63;2.60;;;;;;;;;;5064197;28;20203;-61
2022/04/21 06:35:52;;;;;;;7.23;3.00;;;;;;;;;;5064752;28;20290;-62
2022/04/21 06:38:19;;;;;;;4.37;2.70;;;;;;;;;;5035321;28;20299;-61
2022/04/21 06:40:46;;;;;;;3.60;2.70;;;;;;;;;;5053703;28;20201;-62
2022/04/21 06:48:53;;;;;;;3.23;2.40;;;;;;;;;;5064795;28;20236;-61
2022/04/21 06:51:21;;;;;;;5.77;2.33;;;;;;;;;;5064947;28;20174;-62
2022/04/21 06:53:53;;;;;;;2.93;2.53;;;;;;;;;;5050312;28;20210;-63
2022/04/21 06:56:34;;;;;;;3.17;2.30;;;;;;;;;;5066748;28;20272;-61
2022/04/21 06:59:08;;;;;;;4.13;2.83;;;;;;;;;;5071940;28;20200;-62
2022/04/21 07:01:41;;;;;;;2.73;2.27;;;;;;;;;;5088122;28;20246;-62
2022/04/21 07:04:14;;;;;;;2.57;2.17;;;;;;;;;;5071508;28;20202;-63
2022/04/21 07:06:45;;;;;;;4.67;2.50;;;;;;;;;;5065590;28;20275;-64
2022/04/21 07:09:19;;;;;;;3.37;2.73;;;;;;;;;;5064565;28;20233;-62
2022/04/21 07:11:49;;;;;;;6.07;2.83;;;;;;;;;;5065175;28;20205;-61
2022/04/21 07:14:21;;;;;;;2.77;2.40;;;;;;;;;;5067218;28;20210;-62
2022/04/21 07:16:55;;;;;;;2.87;2.13;;;;;;;;;;5067674;28;20194;-62
2022/04/21 07:19:27;;;;;;;3.27;2.23;;;;;;;;;;5070213;28;20745;-62
2022/04/21 07:21:57;;;;;;;4.13;2.40;;;;;;;;;;5067187;28;20193;-62
2022/04/21 07:24:25;;;;;;;2.27;2.07;;;;;;;;;;5064549;28;20275;-60
2022/04/21 07:26:55;;;;;;;6.60;2.60;;;;;;;;;;5065755;28;20209;-60
2022/04/21 07:29:25;;;;;;;4.53;2.87;;;;;;;;;;5063443;28;20568;-61
2022/04/21 07:31:57;;;;;;;3.20;2.73;;;;;;;;;;5066472;28;20224;-63
2022/04/21 07:34:26;;;;;;;2.83;2.57;;;;;;;;;;5048029;28;20346;-64
2022/04/21 07:36:56;;;;;;;3.23;2.77;;;;;;;;;;5062717;28;20748;-61
2022/04/21 07:39:28;;;;;;;3.57;2.70;;;;;;;;;;5061508;28;20634;-62
2022/04/21 07:41:59;;;;;;;4.47;2.80;;;;;;;;;;5066734;28;20838;-62
2022/04/21 07:44:30;;;;;;;2.73;2.23;;;;;;;;;;5066305;28;20201;-61
2022/04/21 07:47:05;;;;;;;3.13;2.63;;;;;;;;;;5055925;28;20201;-63
2022/04/21 07:49:48;;;;;;;3.30;2.43;;;;;;;;;;5046416;28;20268;-63
2022/04/21 07:55:30;;;;;;;2.53;2.17;;;;;;;;;;5064404;28;20197;-63
2022/04/21 07:58:14;;;;;;;3.60;2.60;;;;;;;;;;5066331;28;20274;-64
2022/04/21 08:00:46;;;;;;;5.17;2.73;;;;;;;;;;5063700;28;20819;-62
2022/04/21 08:03:19;;;;;;;3.30;2.70;;;;;;;;;;5056504;28;20225;-62
2022/04/21 08:05:50;;;;;;;3.77;2.67;;;;;;;;;;5067797;28;20224;-61
2022/04/21 08:08:22;;;;;;;5.37;2.60;;;;;;;;;;5071643;28;20208;-62
2022/04/21 08:10:53;;;;;;;3.00;2.50;;;;;;;;;;5062478;28;20233;-63
2022/04/21 08:13:29;;;;;;;2.60;2.40;;;;;;;;;;5066165;28;20201;-62
2022/04/21 08:15:59;;;;;;;3.53;2.37;;;;;;;;;;5065103;28;20204;-63
2022/04/21 08:18:27;;;;;;;2.90;2.13;;;;;;;;;;5066848;28;20200;-62
2022/04/21 08:20:58;;;;;;;2.93;2.20;;;;;;;;;;5070852;28;20231;-63
2022/04/21 08:23:42;;;;;;;4.57;2.47;;;;;;;;;;5068153;28;20584;-64
2022/04/21 08:34:42;;;;;;;2.70;2.50;;;;;;;;;;5075028;28;20906;-65
2022/04/21 08:37:10;;;;;;;4.67;2.10;;;;;;;;;;5066457;28;20226;-64
2022/04/21 08:39:39;;;;;;;2.07;1.90;;;;;;;;;;5071862;28;20201;-61
2022/04/21 08:42:14;;;;;;;2.00;1.80;;;;;;;;;;5072588;28;20762;-60
2022/04/21 08:44:46;;;;;;;2.37;2.07;;;;;;;;;;5072535;28;20189;-62
2022/04/21 08:47:14;;;;;;;3.90;2.40;;;;;;;;;;5071607;28;20224;-62
2022/04/21 08:49:49;;;;;;;3.60;2.50;;;;;;;;;;5067257;28;20241;-63
2022/04/21 08:52:26;;;;;;;2.70;2.27;;;;;;;;;;5035592;28;20520;-62
2022/04/21 08:54:55;;;;;;;2.33;2.10;;;;;;;;;;5069968;28;20193;-62
2022/04/21 08:57:26;;;;;;;3.37;2.70;;;;;;;;;;5064579;28;20190;-63
2022/04/21 08:59:55;;;;;;;2.73;2.30;;;;;;;;;;5067499;28;20296;-62
2022/04/21 09:02:40;;;;;;;3.37;2.83;;;;;;;;;;5060355;28;20197;-63
2022/04/21 09:05:12;;;;;;;2.53;2.33;;;;;;;;;;5050853;28;20197;-63
2022/04/21 09:07:49;;;;;;;4.23;2.97;;;;;;;;;;5069929;28;20591;-62
2022/04/21 09:10:41;;;;;;;3.13;2.27;;;;;;;;;;5069282;28;20237;-63
2022/04/21 09:13:10;;;;;;;2.43;2.23;;;;;;;;;;5052167;28;20605;-63
2022/04/21 09:15:43;;;;;;;2.70;2.10;;;;;;;;;;5073683;28;20199;-62
2022/04/21 09:18:14;;;;;;;4.27;2.47;;;;;;;;;;5078506;28;20206;-62
2022/04/21 09:20:45;;;;;;;2.53;2.20;;;;;;;;;;5052632;28;20868;-61
2022/04/21 09:23:15;;;;;;;2.40;2.20;;;;;;;;;;5064676;28;20205;-61
2022/04/21 09:25:49;;;;;;;3.27;2.03;;;;;;;;;;5060356;28;20194;-64
2022/04/21 09:28:29;;;;;;;3.83;2.80;;;;;;;;;;5069756;28;20201;-62
2022/04/21 09:31:04;;;;;;;4.27;2.30;;;;;;;;;;5056519;28;20193;-63
2022/04/21 09:33:36;;;;;;;3.37;2.00;;;;;;;;;;5052299;28;20200;-62
2022/04/21 09:36:08;;;;;;;2.67;2.40;;;;;;;;;;5046562;28;20222;-60
2022/04/21 09:38:41;;;;;;;2.73;2.10;;;;;;;;;;5071544;28;20212;-62
2022/04/21 09:41:12;;;;;;;3.47;2.20;;;;;;;;;;5080711;28;20197;-62
2022/04/21 09:43:44;;;;;;;3.30;2.10;;;;;;;;;;5036142;28;20571;-64
2022/04/21 09:46:19;;;;;;;2.37;1.73;;;;;;;;;;5050917;28;20523;-60
2022/04/21 09:48:55;;;;;;;1.90;1.70;;;;;;;;;;5067004;28;20205;-62
2022/04/21 09:51:29;;;;;;;2.27;1.60;;;;;;;;;;5047708;28;20201;-63
2022/04/21 09:54:02;;;;;;;2.27;1.33;;;;;;;;;;5052388;28;20190;-62
2022/04/21 09:56:34;;;;;;;4.10;1.47;;;;;;;;;;5069282;28;20188;-63
2022/04/21 09:59:02;;;;;;;2.50;1.23;;;;;;;;;;5069313;28;20200;-63
2022/04/21 10:01:29;;;;;;;1.73;1.53;;;;;;;;;;5063536;28;20209;-61
2022/04/21 10:03:57;;;;;;;2.90;1.43;;;;;;;;;;5068069;28;20198;-61
2022/04/21 10:06:24;;;;;;;2.20;1.07;;;;;;;;;;5067522;28;20201;-61
2022/04/21 10:08:51;;;;;;;2.10;1.33;;;;;;;;;;5067808;28;20263;-62
2022/04/21 10:11:27;;;;;;;1.60;1.20;;;;;;;;;;5059979;28;20185;-62
2022/04/21 10:13:56;;;;;;;2.07;1.30;;;;;;;;;;5067503;28;20265;-61
2022/04/21 10:16:24;;;;;;;2.03;1.10;;;;;;;;;;5066750;28;20674;-61
2022/04/21 10:19:00;;;;;;;3.33;1.30;;;;;;;;;;5067982;28;20206;-61
2022/04/21 10:21:32;;;;;;;3.83;1.10;;;;;;;;;;5051182;28;20420;-63
2022/04/21 10:23:59;;;;;;;1.70;1.00;;;;;;;;;;5066196;28;20263;-63
2022/04/21 10:26:35;;;;;;;1.20;1.10;;;;;;;;;;5053587;28;20673;-63
2022/04/21 10:29:14;;;;;;;2.23;1.60;;;;;;;;;;5085499;28;20204;-62
2022/04/21 10:31:59;;;;;;;1.33;1.23;;;;;;;;;;5078717;28;20193;-59
2022/04/21 10:34:42;;;;;;;2.37;1.17;;;;;;;;;;5053827;28;20600;-60
2022/04/21 10:37:18;;;;;;;3.53;1.00;;;;;;;;;;5060615;28;20275;-60
2022/04/21 10:40:03;;;;;;;2.07;1.27;;;;;;;;;;5048376;28;20221;-60
2022/04/21 10:42:53;;;;;;;1.40;1.10;;;;;;;;;;5059388;28;20228;-61
2022/04/21 10:45:27;;;;;;;1.57;0.90;;;;;;;;;;5065911;28;20201;-62
2022/04/21 10:48:04;;;;;;;1.83;1.30;;;;;;;;;;5066153;28;20214;-60
2022/04/21 10:50:33;;;;;;;1.17;1.03;;;;;;;;;;5090656;28;20674;-63
2022/04/21 10:58:50;;;;;;;2.03;1.13;;;;;;;;;;5087539;28;20201;-62
2022/04/21 11:01:32;;;;;;;1.17;1.00;;;;;;;;;;5050406;27;20201;-62
2022/04/21 11:04:22;;;;;;;1.20;1.10;;;;;;;;;;5046665;28;20672;-62
2022/04/21 11:07:12;;;;;;;1.47;1.10;;;;;;;;;;5043971;28;20213;-60
2022/04/21 11:09:50;;;;;;;1.23;1.10;;;;;;;;;;5046907;28;20203;-60
2022/04/21 11:12:45;;;;;;;1.10;1.00;;;;;;;;;;5053269;28;20233;-61
2022/04/21 11:15:39;;;;;;;1.93;1.13;;;;;;;;;;5046823;28;20702;-60
2022/04/21 11:18:21;;;;;;;2.37;1.50;;;;;;;;;;5043473;28;20546;-60
2022/04/21 11:20:51;;;;;;;2.73;1.17;;;;;;;;;;5047579;28;20202;-62
2022/04/21 11:23:25;;;;;;;2.90;1.30;;;;;;;;;;5045566;28;20353;-61
2022/04/21 11:26:05;;;;;;;2.87;1.20;;;;;;;;;;5042410;28;20206;-62
2022/04/21 11:28:35;;;;;;;2.70;1.10;;;;;;;;;;5042571;28;20878;-61
2022/04/21 11:31:04;;;;;;;1.73;1.00;;;;;;;;;;5050538;28;20611;-60
2022/04/21 11:33:33;;;;;;;2.50;1.60;;;;;;;;;;5056320;28;20255;-61
2022/04/21 11:36:11;;;;;;;1.70;1.30;;;;;;;;;;5051490;28;20241;-61
2022/04/21 11:38:55;;;;;;;2.87;1.77;;;;;;;;;;5042767;28;20198;-62
2022/04/21 11:41:41;;;;;;;1.87;1.20;;;;;;;;;;5041059;28;20640;-62
2022/04/21 11:44:09;;;;;;;2.50;1.33;;;;;;;;;;5057509;28;20252;-62
2022/04/21 11:46:39;;;;;;;2.47;1.37;;;;;;;;;;5046100;28;20210;-61
2022/04/21 11:49:08;;;;;;;2.07;1.20;;;;;;;;;;5036861;28;20203;-61
2022/04/21 11:51:35;;;;;;;1.40;1.20;;;;;;;;;;5072967;28;20242;-62
2022/04/21 11:54:03;;;;;;;3.60;1.40;;;;;;;;;;5055495;28;20780;-61
2022/04/21 11:56:30;;;;;;;1.23;1.13;;;;;;;;;;5042196;28;20632;-61
2022/04/21 11:59:04;;;;;;;1.50;1.30;;;;;;;;;;5042642;28;20590;-61
2022/04/21 12:07:04;;;;;;;1.90;1.47;;;;;;;;;;5029429;28;20198;-63
2022/04/21 12:09:34;;;;;;;1.50;1.03;;;;;;;;;;5028357;28;20203;-63
2022/04/21 12:12:04;;;;;;;1.53;1.30;;;;;;;;;;5028106;28;20911;-61
2022/04/21 12:14:31;;;;;;;1.30;1.20;;;;;;;;;;5047315;28;20619;-62
2022/04/21 12:17:02;;;;;;;1.93;1.10;;;;;;;;;;5030608;28;20195;-61
2022/04/21 12:19:32;;;;;;;1.60;1.40;;;;;;;;;;5026697;28;20655;-61
2022/04/21 12:22:02;;;;;;;1.80;1.30;;;;;;;;;;5016277;28;20234;-61
2022/04/21 12:24:54;;;;;;;3.77;1.60;;;;;;;;;;5026194;28;20207;-61
2022/04/21 12:27:26;;;;;;;3.93;1.50;;;;;;;;;;5026202;28;20191;-61
2022/04/21 12:29:53;;;;;;;1.73;1.37;;;;;;;;;;5027446;28;20188;-62
2022/04/21 12:32:24;;;;;;;2.37;1.60;;;;;;;;;;5013889;28;20318;-61
2022/04/21 12:34:51;;;;;;;2.97;1.57;;;;;;;;;;5028916;28;20188;-61
2022/04/21 12:37:29;;;;;;;2.10;1.50;;;;;;;;;;5030235;28;20219;-61
2022/04/21 12:39:57;;;;;;;1.73;1.63;;;;;;;;;;5028730;28;20191;-61
2022/04/21 12:42:41;;;;;;;2.83;1.53;;;;;;;;;;5029858;28;20194;-61
2022/04/21 12:45:09;;;;;;;3.83;1.80;;;;;;;;;;5009626;28;20199;-61
2022/04/21 12:47:43;;;;;;;2.47;1.60;;;;;;;;;;5007408;28;20215;-61
2022/04/21 12:50:12;;;;;;;2.10;1.80;;;;;;;;;;5024226;28;20221;-62
2022/04/21 12:52:41;;;;;;;1.80;1.70;;;;;;;;;;5021713;28;20226;-62
2022/04/21 12:55:13;;;;;;;1.70;1.50;;;;;;;;;;5009473;28;20203;-62
2022/04/21 12:57:41;;;;;;;2.90;2.00;;;;;;;;;;5020183;28;20199;-63
2022/04/21 13:00:09;;;;;;;3.07;2.10;;;;;;;;;;5016695;28;20223;-61
2022/04/21 13:02:37;;;;;;;2.80;1.90;;;;;;;;;;5029151;28;20198;-61
2022/04/21 13:05:05;;;;;;;4.30;2.10;;;;;;;;;;5029746;28;20203;-61
2022/04/21 13:07:32;;;;;;;2.80;1.70;;;;;;;;;;5033680;28;20211;-61
2022/04/21 13:09:59;;;;;;;1.80;1.70;;;;;;;;;;5032364;28;20279;-62
2022/04/21 13:12:26;;;;;;;2.50;1.67;;;;;;;;;;5027425;28;20238;-62
2022/04/21 13:14:53;;;;;;;2.43;2.07;;;;;;;;;;5041276;28;20193;-61
2022/04/21 13:17:21;;;;;;;3.50;1.90;;;;;;;;;;5019187;28;20203;-61
2022/04/21 13:19:48;;;;;;;5.37;2.40;;;;;;;;;;5027237;28;20203;-61
2022/04/21 13:22:16;;;;;;;3.40;2.20;;;;;;;;;;5015064;28;20191;-61
2022/04/21 13:24:43;;;;;;;4.37;2.10;;;;;;;;;;5030382;28;20242;-61
2022/04/21 13:27:10;;;;;;;3.87;2.03;;;;;;;;;;5025590;28;20655;-62
2022/04/21 13:29:37;;;;;;;5.17;2.60;;;;;;;;;;5027667;28;20615;-62
2022/04/21 13:34:57;;;;;;;2.20;2.00;;;;;;;;;;5027697;28;20222;-61
2022/04/21 13:37:31;;;;;;;4.80;2.27;;;;;;;;;;5011192;28;20260;-62
2022/04/21 13:40:07;;;;;;;2.87;1.90;;;;;;;;;;5027731;28;20221;-62
2022/04/21 13:42:36;;;;;;;4.43;2.20;;;;;;;;;;5029997;28;20206;-61
2022/04/21 13:45:03;;;;;;;3.27;2.20;;;;;;;;;;5030470;28;20585;-60
2022/04/21 13:47:50;;;;;;;4.57;2.13;;;;;;;;;;5025094;28;20550;-61
2022/04/21 13:50:18;;;;;;;4.30;2.73;;;;;;;;;;5028635;28;20253;-61
2022/04/21 13:52:45;;;;;;;4.37;2.90;;;;;;;;;;5030650;28;20287;-61
2022/04/21 13:55:12;;;;;;;3.10;2.50;;;;;;;;;;5029377;28;20806;-62
2022/04/21 13:57:40;;;;;;;3.03;2.30;;;;;;;;;;5026733;28;20206;-63
2022/04/21 14:00:08;;;;;;;4.03;2.33;;;;;;;;;;5022520;28;20707;-62
2022/04/21 14:02:36;;;;;;;3.70;2.23;;;;;;;;;;5025540;28;20570;-62
2022/04/21 14:05:03;;;;;;;2.77;2.30;;;;;;;;;;5025954;28;20203;-63
2022/04/21 14:07:31;;;;;;;2.90;2.10;;;;;;;;;;5024714;28;20776;-63
2022/04/21 14:09:58;;;;;;;5.90;2.17;;;;;;;;;;5023227;28;20218;-63
2022/04/21 14:12:29;;;;;;;3.70;2.50;;;;;;;;;;5025678;28;20231;-61
2022/04/21 14:14:57;;;;;;;3.03;2.47;;;;;;;;;;5036240;28;20227;-60
2022/04/21 14:17:24;;;;;;;3.13;2.20;;;;;;;;;;5021432;28;20234;-60
2022/04/21 14:19:51;;;;;;;5.43;2.03;;;;;;;;;;5026570;28;20535;-61
2022/04/21 14:22:19;;;;;;;2.97;2.00;;;;;;;;;;5027116;28;20257;-61
2022/04/21 14:24:46;;;;;;;2.00;1.47;;;;;;;;;;5023276;28;20207;-61
2022/04/21 14:27:14;;;;;;;3.63;2.20;;;;;;;;;;5017135;28;20202;-64
2022/04/21 14:29:41;;;;;;;2.63;1.90;;;;;;;;;;5025411;28;20199;-62
2022/04/21 14:32:09;;;;;;;3.13;2.47;;;;;;;;;;5027283;28;20223;-63
2022/04/21 14:34:37;;;;;;;2.83;2.03;;;;;;;;;;5025649;28;20201;-63
2022/04/21 14:37:05;;;;;;;4.73;2.53;;;;;;;;;;5024264;28;20225;-61
2022/04/21 14:45:05;;;;;;;4.77;2.47;;;;;;;;;;5021045;28;20187;-61
2022/04/21 14:47:35;;;;;;;2.60;2.23;;;;;;;;;;5024962;28;20214;-61
2022/04/21 14:50:05;;;;;;;5.10;2.70;;;;;;;;;;5028223;28;20211;-61
2022/04/21 14:52:37;;;;;;;2.37;1.80;;;;;;;;;;5024987;28;20247;-62
2022/04/21 14:55:08;;;;;;;2.83;1.87;;;;;;;;;;5026309;28;20195;-61
2022/04/21 14:57:50;;;;;;;2.17;1.90;;;;;;;;;;5025986;28;20297;-61
2022/04/21 15:00:22;;;;;;;2.70;1.80;;;;;;;;;;5054616;28;20214;-63
2022/04/21 15:02:54;;;;;;;4.20;2.37;;;;;;;;;;5022372;28;20245;-63
2022/04/21 15:05:25;;;;;;;2.50;1.83;;;;;;;;;;5023805;28;20580;-63
2022/04/21 15:07:56;;;;;;;7.13;2.00;;;;;;;;;;5017418;28;20192;-63
2022/04/21 15:10:28;;;;;;;3.13;1.87;;;;;;;;;;5020163;28;20206;-62
2022/04/21 15:13:03;;;;;;;3.23;2.20;;;;;;;;;;5027255;28;20237;-62
2022/04/21 15:15:33;;;;;;;5.57;2.57;;;;;;;;;;5026728;28;20221;-63
2022/04/21 15:18:03;;;;;;;3.93;2.03;;;;;;;;;;5025288;28;20195;-63
2022/04/21 15:20:31;;;;;;;2.03;1.80;;;;;;;;;;5027015;28;20203;-62
2022/04/21 15:23:01;;;;;;;2.97;2.33;;;;;;;;;;5028438;28;20264;-61
2022/04/21 15:25:33;;;;;;;2.57;1.90;;;;;;;;;;5020924;28;20214;-62
2022/04/21 15:28:02;;;;;;;2.73;2.00;;;;;;;;;;5024976;28;20265;-61
2022/04/21 15:30:35;;;;;;;4.53;1.97;;;;;;;;;;5025126;28;20253;-62
2022/04/21 15:33:07;;;;;;;2.87;1.60;;;;;;;;;;5027965;28;20596;-61
2022/04/21 15:35:36;;;;;;;1.73;1.60;;;;;;;;;;5021431;28;20211;-62
2022/04/21 15:38:08;;;;;;;2.80;1.87;;;;;;;;;;5025114;28;20226;-61
2022/04/21 15:40:38;;;;;;;3.07;2.17;;;;;;;;;;5028207;28;20676;-61
2022/04/21 15:43:12;;;;;;;3.07;2.30;;;;;;;;;;5028519;28;20198;-61
2022/04/21 15:45:46;;;;;;;2.60;2.40;;;;;;;;;;5030134;28;20593;-63
2022/04/21 15:48:17;;;;;;;3.53;1.93;;;;;;;;;;5026936;28;20765;-63
2022/04/21 15:50:52;;;;;;;3.63;2.20;;;;;;;;;;5030549;28;20203;-63
2022/04/21 15:58:55;;;;;;;2.17;1.90;;;;;;;;;;5027653;28;20195;-62
2022/04/21 16:01:24;;;;;;;3.53;2.20;;;;;;;;;;5027374;28;20203;-62
2022/04/21 16:03:52;;;;;;;2.03;1.80;;;;;;;;;;5032657;28;20203;-62
2022/04/21 16:06:20;;;;;;;2.30;1.93;;;;;;;;;;5030129;28;20202;-61
2022/04/21 16:08:54;;;;;;;2.17;1.77;;;;;;;;;;5028200;28;20230;-61
2022/04/21 16:11:22;;;;;;;2.47;1.97;;;;;;;;;;5026912;28;20653;-62